createdAt,value
2023-02-14T00:01:45.737Z,13.50
2023-02-14T00:04:13.712Z,11.47
2023-02-14T00:06:41.391Z,13.60
2023-02-14T00:09:12.744Z,16.13
2023-02-14T00:11:40.747Z,13.17
2023-02-14T00:14:26.855Z,14.30
2023-02-14T00:16:54.399Z,12.63
2023-02-14T00:19:23.043Z,11.17
2023-02-14T00:21:51.188Z,11.87
2023-02-14T00:24:21.215Z,14.40
2023-02-14T00:26:49.186Z,15.93
2023-02-14T00:29:20.054Z,12.30
2023-02-14T00:31:47.672Z,18.33
2023-02-14T00:34:16.520Z,10.77
2023-02-14T00:36:44.730Z,11.13
2023-02-14T00:39:13.913Z,12.97
2023-02-14T00:41:42.299Z,14.03
2023-02-14T00:44:11.042Z,10.32
2023-02-14T00:46:39.947Z,15.57
2023-02-14T00:49:07.551Z,14.13
2023-02-14T00:51:34.724Z,15.10
2023-02-14T00:54:03.429Z,14.37
2023-02-14T00:56:32.164Z,13.33
2023-02-14T00:58:59.382Z,14.87
2023-02-14T01:01:27.453Z,19.87
2023-02-14T01:03:55.055Z,16.97
2023-02-14T01:06:22.421Z,20.23
2023-02-14T01:08:50.070Z,15.45
2023-02-14T01:11:20.424Z,12.57
2023-02-14T01:13:49.936Z,16.00
2023-02-14T01:16:22.491Z,15.10
2023-02-14T01:18:50.318Z,11.23
2023-02-14T01:21:23.589Z,13.60
2023-02-14T01:23:54.377Z,12.13
2023-02-14T01:26:23.700Z,11.13
2023-02-14T01:28:50.905Z,12.70
2023-02-14T01:31:21.181Z,16.70
2023-02-14T01:33:49.941Z,12.20
2023-02-14T01:36:18.584Z,18.20
2023-02-14T01:38:45.962Z,18.60
2023-02-14T01:41:13.149Z,16.53
2023-02-14T01:43:58.902Z,13.40
2023-02-14T01:46:29.831Z,12.73
2023-02-14T01:49:27.163Z,23.17
2023-02-14T01:52:03.829Z,15.63
2023-02-14T01:54:33.457Z,20.70
2023-02-14T01:57:05.174Z,16.83
2023-02-14T01:59:42.500Z,28.00
2023-02-14T02:02:10.797Z,21.23
2023-02-14T02:04:43.641Z,18.53
2023-02-14T02:07:15.118Z,14.23
2023-02-14T02:09:49.594Z,13.00
2023-02-14T02:12:16.796Z,17.83
2023-02-14T02:14:44.471Z,18.07
2023-02-14T02:17:21.360Z,16.00
2023-02-14T02:20:00.568Z,18.33
2023-02-14T02:22:49.235Z,17.80
2023-02-14T02:25:53.507Z,11.07
2023-02-14T02:28:26.928Z,18.37
2023-02-14T02:31:15.097Z,16.23
2023-02-14T02:34:16.415Z,20.03
2023-02-14T02:37:16.025Z,19.13
2023-02-14T02:40:01.072Z,13.53
2023-02-14T02:42:43.845Z,13.83
2023-02-14T02:45:34.456Z,12.40
2023-02-14T02:48:23.465Z,23.63
2023-02-14T02:51:14.385Z,27.43
2023-02-14T02:54:09.460Z,14.43
2023-02-14T02:56:46.966Z,14.80
2023-02-14T02:59:42.939Z,19.20
2023-02-14T03:02:19.652Z,15.47
2023-02-14T03:04:57.159Z,15.27
2023-02-14T03:07:39.874Z,13.90
2023-02-14T03:10:18.795Z,14.77
2023-02-14T03:13:16.384Z,11.93
2023-02-14T03:16:21.151Z,12.03
2023-02-14T03:19:26.432Z,14.90
2023-02-14T03:22:21.135Z,10.47
2023-02-14T03:25:08.627Z,12.70
2023-02-14T03:27:49.769Z,16.27
2023-02-14T03:30:19.701Z,14.13
2023-02-14T03:33:04.758Z,14.53
2023-02-14T03:35:45.731Z,18.23
2023-02-14T03:38:27.885Z,15.50
2023-02-14T03:41:09.385Z,17.30
2023-02-14T03:43:49.781Z,14.57
2023-02-14T03:46:39.116Z,15.47
2023-02-14T03:49:12.411Z,11.97
2023-02-14T03:51:41.408Z,14.73
2023-02-14T03:54:11.173Z,16.13
2023-02-14T03:56:45.629Z,15.27
2023-02-14T03:59:19.606Z,12.43
2023-02-14T04:02:01.770Z,14.17
2023-02-14T04:04:35.613Z,15.97
2023-02-14T04:07:11.401Z,9.97
2023-02-14T04:09:38.852Z,14.60
2023-02-14T04:12:06.397Z,14.77
2023-02-14T04:14:33.691Z,14.70
2023-02-14T04:17:19.736Z,10.77
2023-02-14T04:19:47.081Z,10.80
2023-02-14T04:22:14.211Z,9.37
2023-02-14T04:24:41.428Z,9.80
2023-02-14T04:27:11.238Z,9.77
2023-02-14T04:29:40.678Z,13.13
2023-02-14T04:32:10.741Z,14.37
2023-02-14T04:34:38.672Z,14.57
2023-02-14T04:37:06.566Z,14.87
2023-02-14T04:39:34.063Z,9.97
2023-02-14T04:42:01.335Z,11.63
2023-02-14T04:44:28.558Z,17.47
2023-02-14T04:46:56.388Z,9.47
2023-02-14T04:49:23.814Z,12.33
2023-02-14T04:51:51.006Z,14.00
2023-02-14T04:54:18.241Z,23.60
2023-02-14T04:56:45.327Z,16.43
2023-02-14T04:59:12.589Z,17.10
2023-02-14T05:01:39.786Z,15.93
2023-02-14T05:04:07.417Z,15.27
2023-02-14T05:06:34.604Z,12.27
2023-02-14T05:09:02.033Z,12.70
2023-02-14T05:11:30.384Z,13.27
2023-02-14T05:13:57.531Z,16.33
2023-02-14T05:16:25.218Z,9.90
2023-02-14T05:18:52.400Z,10.93
2023-02-14T05:21:19.525Z,10.77
2023-02-14T05:23:46.780Z,11.50
2023-02-14T05:26:13.942Z,10.70
2023-02-14T05:28:41.224Z,10.67
2023-02-14T05:31:09.475Z,13.07
2023-02-14T05:33:36.748Z,12.70
2023-02-14T05:36:04.677Z,15.40
2023-02-14T05:38:33.528Z,10.43
2023-02-14T05:41:01.632Z,12.90
2023-02-14T05:43:30.340Z,12.03
2023-02-14T05:45:58.144Z,11.83
2023-02-14T05:48:25.430Z,8.73
2023-02-14T05:50:52.732Z,10.57
2023-02-14T05:53:20.212Z,10.40
2023-02-14T05:55:47.935Z,10.83
2023-02-14T05:58:15.033Z,11.17
2023-02-14T06:00:42.350Z,7.33
2023-02-14T06:03:09.552Z,9.67
2023-02-14T06:05:36.859Z,10.77
2023-02-14T06:08:03.975Z,14.40
2023-02-14T06:10:31.311Z,8.93
2023-02-14T06:12:58.383Z,7.30
2023-02-14T06:15:25.914Z,6.53
2023-02-14T06:17:57.512Z,9.30
2023-02-14T06:20:25.353Z,8.70
2023-02-14T06:22:53.082Z,8.70
2023-02-14T06:25:20.905Z,11.07
2023-02-14T06:27:49.333Z,8.37
2023-02-14T06:30:18.188Z,10.53
2023-02-14T06:32:45.276Z,8.27
2023-02-14T06:35:13.898Z,15.07
2023-02-14T06:37:42.268Z,11.40
2023-02-14T06:40:10.752Z,15.73
2023-02-14T06:42:38.559Z,11.30
2023-02-14T06:45:06.618Z,13.37
2023-02-14T06:47:35.146Z,17.00
2023-02-14T06:50:05.313Z,17.83
2023-02-14T06:52:33.886Z,17.13
2023-02-14T06:55:01.062Z,15.17
2023-02-14T06:57:28.386Z,16.47
2023-02-14T06:59:55.751Z,13.37
2023-02-14T07:02:25.056Z,14.70
2023-02-14T07:04:52.404Z,13.20
2023-02-14T07:07:19.553Z,11.33
2023-02-14T07:09:46.611Z,8.67
2023-02-14T07:12:13.949Z,11.57
2023-02-14T07:14:41.241Z,16.00
2023-02-14T07:17:08.398Z,22.47
2023-02-14T07:19:35.633Z,11.67
2023-02-14T07:22:02.980Z,15.83
2023-02-14T07:24:30.155Z,20.03
2023-02-14T07:26:59.570Z,21.43
2023-02-14T07:29:26.667Z,18.37
2023-02-14T07:31:53.956Z,25.10
2023-02-14T07:34:21.114Z,20.17
2023-02-14T07:36:48.236Z,21.47
2023-02-14T07:39:15.420Z,23.77
2023-02-14T07:41:42.572Z,23.70
2023-02-14T07:44:10.776Z,26.40
2023-02-14T07:46:37.975Z,25.70
2023-02-14T07:49:05.170Z,19.13
2023-02-14T07:51:32.460Z,21.73
2023-02-14T07:53:59.540Z,22.93
2023-02-14T07:56:26.767Z,21.00
2023-02-14T07:58:53.878Z,18.90
2023-02-14T08:01:21.330Z,15.80
2023-02-14T08:03:51.754Z,18.23
2023-02-14T08:06:20.438Z,18.17
2023-02-14T08:08:48.391Z,21.73
2023-02-14T08:11:35.617Z,21.20
2023-02-14T08:14:04.140Z,19.57
2023-02-14T08:16:34.381Z,34.97
2023-02-14T08:19:02.330Z,21.33
2023-02-14T08:21:30.108Z,33.00
2023-02-14T08:23:57.712Z,18.80
2023-02-14T08:26:25.166Z,18.60
2023-02-14T08:28:52.436Z,29.40
2023-02-14T08:31:35.534Z,30.20
2023-02-14T08:34:05.226Z,25.73
2023-02-14T08:36:33.242Z,44.23
2023-02-14T08:39:00.607Z,31.63
2023-02-14T08:41:27.779Z,25.83
2023-02-14T08:43:54.954Z,35.90
2023-02-14T08:46:22.289Z,27.57
2023-02-14T08:48:50.390Z,42.53
2023-02-14T08:51:17.771Z,30.43
2023-02-14T08:53:46.408Z,43.03
2023-02-14T08:56:14.964Z,28.83
2023-02-14T08:58:43.047Z,34.20
2023-02-14T09:01:12.277Z,23.97
2023-02-14T09:03:40.005Z,29.57
2023-02-14T09:06:14.685Z,32.63
2023-02-14T09:08:41.915Z,30.10
2023-02-14T09:11:15.810Z,29.37
2023-02-14T09:13:43.557Z,35.83
2023-02-14T09:16:12.947Z,37.60
2023-02-14T09:18:40.780Z,38.63
2023-02-14T09:21:14.004Z,26.00
2023-02-14T09:23:41.376Z,39.10
2023-02-14T09:26:10.738Z,37.60
2023-02-14T09:28:39.011Z,31.83
2023-02-14T09:31:13.698Z,25.73
2023-02-14T09:33:41.725Z,28.60
2023-02-14T09:36:28.350Z,25.00
2023-02-14T09:38:55.573Z,19.10
2023-02-14T09:41:28.600Z,22.90
2023-02-14T09:44:27.820Z,24.90
2023-02-14T09:46:59.568Z,23.13
2023-02-14T09:49:37.473Z,34.67
2023-02-14T09:52:09.765Z,26.97
2023-02-14T09:54:37.801Z,24.13
2023-02-14T09:57:47.271Z,25.00
2023-02-14T10:00:26.776Z,26.20
2023-02-14T10:03:35.254Z,31.70
2023-02-14T10:06:17.734Z,21.93
2023-02-14T10:08:50.777Z,25.53
2023-02-14T10:11:22.616Z,23.13
2023-02-14T10:13:59.681Z,25.63
2023-02-14T10:16:33.650Z,21.80
2023-02-14T10:19:22.386Z,28.02
2023-02-14T10:21:52.884Z,30.73
2023-02-14T10:24:35.871Z,35.72
2023-02-14T10:27:21.063Z,33.97
2023-02-14T10:29:48.707Z,21.90
2023-02-14T10:32:25.213Z,20.83
2023-02-14T10:34:57.325Z,15.50
2023-02-14T10:37:46.370Z,21.30
2023-02-14T10:40:41.356Z,18.92
2023-02-14T10:43:30.410Z,24.20
2023-02-14T10:46:08.767Z,18.30
2023-02-14T10:48:54.086Z,19.67
2023-02-14T10:51:46.736Z,30.15
2023-02-14T10:54:29.115Z,22.60
2023-02-14T10:57:03.500Z,24.35
2023-02-14T10:59:46.697Z,24.30
2023-02-14T11:02:16.774Z,32.70
2023-02-14T11:04:46.736Z,20.80
2023-02-14T11:07:15.795Z,37.33
2023-02-14T11:09:43.014Z,30.17
2023-02-14T11:12:10.758Z,27.52
2023-02-14T11:14:40.072Z,19.65
2023-02-14T11:17:30.855Z,36.53
2023-02-14T11:20:07.320Z,21.38
2023-02-14T11:22:35.571Z,19.55
2023-02-14T11:25:23.432Z,25.65
2023-02-14T11:27:57.866Z,18.83
2023-02-14T11:30:41.362Z,19.60
2023-02-14T11:33:23.042Z,26.25
2023-02-14T11:35:54.241Z,34.72
2023-02-14T11:38:35.925Z,28.70
2023-02-14T11:41:04.870Z,23.80
2023-02-14T11:43:35.557Z,29.13
2023-02-14T11:46:14.450Z,26.90
2023-02-14T11:49:00.280Z,34.28
2023-02-14T11:51:41.903Z,29.27
2023-02-14T11:54:14.491Z,22.02
2023-02-14T11:57:02.043Z,27.48
2023-02-14T11:59:37.195Z,22.83
2023-02-14T12:02:26.635Z,18.42
2023-02-14T12:04:58.920Z,16.65
2023-02-14T12:07:31.158Z,22.38
2023-02-14T12:10:18.685Z,20.70
2023-02-14T12:12:49.083Z,18.58
2023-02-14T12:15:28.011Z,20.73
2023-02-14T12:18:33.909Z,23.65
2023-02-14T12:21:24.153Z,30.65
2023-02-14T12:24:07.583Z,25.85
2023-02-14T12:26:37.705Z,26.92
2023-02-14T12:29:10.478Z,24.42
2023-02-14T12:31:37.782Z,21.63
2023-02-14T12:34:05.336Z,18.15
2023-02-14T12:36:44.389Z,26.42
2023-02-14T12:39:32.040Z,14.90
2023-02-14T12:42:23.577Z,15.75
2023-02-14T12:45:16.823Z,25.02
2023-02-14T12:48:15.186Z,23.05
2023-02-14T12:51:07.192Z,23.17
2023-02-14T12:53:49.624Z,30.92
2023-02-14T12:56:31.569Z,21.63
2023-02-14T12:59:31.385Z,23.17
2023-02-14T13:02:32.479Z,20.85
2023-02-14T13:05:18.244Z,17.85
2023-02-14T13:07:51.463Z,13.30
2023-02-14T13:10:31.274Z,9.82
2023-02-14T13:13:08.287Z,19.38
2023-02-14T13:15:53.236Z,17.77
2023-02-14T13:18:46.263Z,16.60
2023-02-14T13:21:20.045Z,16.05
2023-02-14T13:23:48.926Z,20.73
2023-02-14T13:26:36.893Z,11.73
2023-02-14T13:29:13.036Z,15.55
2023-02-14T13:31:41.508Z,20.60
2023-02-14T13:34:26.252Z,13.15
2023-02-14T13:36:56.092Z,15.38
2023-02-14T13:39:34.352Z,17.23
2023-02-14T13:42:06.055Z,13.52
2023-02-14T13:44:46.598Z,13.38
2023-02-14T13:47:27.291Z,12.40
2023-02-14T13:50:02.339Z,18.65
2023-02-14T13:52:45.083Z,19.50
2023-02-14T13:55:34.139Z,14.52
2023-02-14T13:58:01.512Z,17.88
2023-02-14T14:00:52.301Z,15.05
2023-02-14T14:03:28.959Z,14.18
2023-02-14T14:06:10.956Z,9.65
2023-02-14T14:08:41.253Z,15.75
2023-02-14T14:11:27.484Z,14.88
2023-02-14T14:14:04.481Z,18.88
2023-02-14T14:16:35.335Z,13.88
2023-02-14T14:19:07.272Z,18.70
2023-02-14T14:21:39.224Z,16.65
2023-02-14T14:24:12.571Z,13.82
2023-02-14T14:26:48.303Z,17.05
2023-02-14T14:29:38.513Z,20.27
2023-02-14T14:32:21.719Z,15.90
2023-02-14T14:34:54.360Z,17.75
2023-02-14T14:37:24.648Z,11.70
2023-02-14T14:39:54.408Z,20.52
2023-02-14T14:42:23.853Z,13.32
2023-02-14T14:44:55.835Z,13.02
2023-02-14T14:47:27.079Z,18.63
2023-02-14T14:50:03.687Z,17.45
2023-02-14T14:52:35.925Z,19.73
2023-02-14T14:55:05.176Z,20.40
2023-02-14T14:57:35.379Z,21.90
2023-02-14T15:00:21.577Z,18.80
2023-02-14T15:03:04.526Z,25.70
2023-02-14T15:05:37.953Z,18.67
2023-02-14T15:08:30.905Z,20.60
2023-02-14T15:11:09.753Z,19.85
2023-02-14T15:13:50.817Z,22.15
2023-02-14T15:16:41.881Z,19.77
2023-02-14T15:19:12.925Z,19.33
2023-02-14T15:21:44.770Z,26.77
2023-02-14T15:24:16.208Z,17.52
2023-02-14T15:26:45.973Z,24.05
2023-02-14T15:29:21.407Z,22.52
2023-02-14T15:31:49.631Z,28.55
2023-02-14T15:34:19.561Z,20.23
2023-02-14T15:36:52.304Z,23.60
2023-02-14T15:39:22.541Z,24.13
2023-02-14T15:41:55.574Z,21.77
2023-02-14T15:44:25.294Z,25.40
2023-02-14T15:47:01.568Z,24.15
2023-02-14T15:49:38.447Z,26.00
2023-02-14T15:52:06.484Z,26.45
2023-02-14T15:54:38.453Z,29.95
2023-02-14T15:57:08.249Z,24.60
2023-02-14T15:59:36.913Z,27.05
2023-02-14T16:02:25.586Z,23.45
2023-02-14T16:04:52.998Z,19.60
2023-02-14T16:07:26.692Z,23.90
2023-02-14T16:10:22.414Z,19.83
2023-02-14T16:13:04.329Z,20.75
2023-02-14T16:15:34.295Z,15.70
2023-02-14T16:18:08.183Z,22.00
2023-02-14T16:20:43.678Z,20.73
2023-02-14T16:23:29.782Z,29.77
2023-02-14T16:25:59.581Z,14.20
2023-02-14T16:28:31.250Z,24.02
2023-02-14T16:31:02.938Z,24.92
2023-02-14T16:33:35.437Z,19.25
2023-02-14T16:36:18.020Z,15.98
2023-02-14T16:38:45.846Z,21.10
2023-02-14T16:41:20.660Z,21.73
2023-02-14T16:43:48.543Z,25.40
2023-02-14T16:46:18.310Z,17.65
2023-02-14T16:48:45.797Z,20.35
2023-02-14T16:51:14.311Z,19.38
2023-02-14T16:53:42.909Z,22.48
2023-02-14T16:56:17.605Z,27.52
2023-02-14T16:58:45.490Z,36.03
2023-02-14T17:01:12.748Z,18.08
2023-02-14T17:03:42.513Z,17.65
2023-02-14T17:06:17.227Z,21.52
2023-02-14T17:08:45.885Z,18.02
2023-02-14T17:11:13.232Z,29.65
2023-02-14T17:13:44.551Z,22.90
2023-02-14T17:16:15.672Z,15.75
2023-02-14T17:18:49.003Z,16.95
2023-02-14T17:21:20.033Z,17.52
2023-02-14T17:23:48.514Z,18.42
2023-02-14T17:26:17.993Z,15.77
2023-02-14T17:28:46.576Z,20.98
2023-02-14T17:31:14.231Z,18.58
2023-02-14T17:33:41.686Z,17.60
2023-02-14T17:36:12.099Z,19.75
2023-02-14T17:38:40.388Z,12.13
2023-02-14T17:41:16.584Z,19.67
2023-02-14T17:43:43.972Z,17.67
2023-02-14T17:46:11.215Z,22.33
2023-02-14T17:48:38.396Z,14.82
2023-02-14T17:51:07.188Z,16.20
2023-02-14T17:53:35.829Z,13.60
2023-02-14T17:56:12.136Z,25.13
2023-02-14T17:58:39.591Z,16.52
2023-02-14T18:01:09.196Z,28.45
2023-02-14T18:03:36.996Z,15.13
2023-02-14T18:06:05.058Z,23.70
2023-02-14T18:08:35.112Z,15.95
2023-02-14T18:11:11.289Z,19.38
2023-02-14T18:13:39.508Z,14.20
2023-02-14T18:16:12.960Z,21.80
2023-02-14T18:18:40.772Z,14.90
2023-02-14T18:21:10.008Z,13.80
2023-02-14T18:23:37.715Z,19.30
2023-02-14T18:26:08.122Z,14.30
2023-02-14T18:28:36.473Z,14.85
2023-02-14T18:31:15.862Z,23.42
2023-02-14T18:33:44.329Z,19.35
2023-02-14T18:36:13.783Z,14.27
2023-02-14T18:38:43.439Z,18.52
2023-02-14T18:41:13.372Z,12.65
2023-02-14T18:43:41.466Z,13.00
2023-02-14T18:46:11.095Z,17.02
2023-02-14T18:48:38.593Z,16.73
2023-02-14T18:51:17.439Z,14.10
2023-02-14T18:53:46.105Z,22.13
2023-02-14T18:56:18.191Z,14.05
2023-02-14T18:58:48.779Z,22.48
2023-02-14T19:01:18.966Z,16.98
2023-02-14T19:03:46.734Z,16.15
2023-02-14T19:06:13.970Z,13.27
2023-02-14T19:08:41.537Z,18.20
2023-02-14T19:11:13.901Z,14.60
2023-02-14T19:13:46.043Z,15.23
2023-02-14T19:16:15.596Z,14.27
2023-02-14T19:18:43.384Z,13.27
2023-02-14T19:21:11.791Z,7.60
2023-02-14T19:23:39.311Z,12.13
2023-02-14T19:26:15.313Z,9.02
2023-02-14T19:28:43.123Z,12.38
2023-02-14T19:31:10.531Z,8.30
2023-02-14T19:33:43.304Z,18.42
2023-02-14T19:36:12.969Z,14.98
2023-02-14T19:38:45.106Z,10.30
2023-02-14T19:41:30.261Z,8.32
2023-02-14T19:43:59.046Z,12.00
2023-02-14T19:46:28.017Z,17.60
2023-02-14T19:48:59.032Z,15.80
2023-02-14T19:51:29.354Z,16.42
2023-02-14T19:53:58.082Z,15.45
2023-02-14T19:56:31.475Z,14.93
2023-02-14T19:58:59.480Z,15.00
2023-02-14T20:01:34.178Z,23.45
2023-02-14T20:04:01.544Z,16.60
2023-02-14T20:06:31.340Z,22.27
2023-02-14T20:08:58.974Z,13.20
2023-02-14T20:11:35.788Z,14.27
2023-02-14T20:14:04.899Z,17.52
2023-02-14T20:16:33.621Z,16.65
2023-02-14T20:19:02.956Z,22.25
2023-02-14T20:21:30.093Z,17.35
2023-02-14T20:24:02.091Z,24.63
2023-02-14T20:26:34.703Z,14.48
2023-02-14T20:29:04.307Z,17.73
2023-02-14T20:31:36.057Z,18.00
2023-02-14T20:34:03.792Z,20.10
2023-02-14T20:36:31.146Z,28.58
2023-02-14T20:39:00.671Z,14.40
2023-02-14T20:41:28.631Z,15.93
2023-02-14T20:44:03.311Z,15.52
2023-02-14T20:46:32.433Z,19.08
2023-02-14T20:48:59.698Z,13.30
2023-02-14T20:51:27.079Z,17.85
2023-02-14T20:53:54.510Z,19.98
2023-02-14T20:56:24.140Z,18.10
2023-02-14T20:58:51.435Z,14.93
2023-02-14T21:01:21.545Z,21.10
2023-02-14T21:03:51.430Z,18.55
2023-02-14T21:06:21.836Z,17.35
2023-02-14T21:08:49.961Z,19.70
2023-02-14T21:11:18.946Z,13.20
2023-02-14T21:13:46.505Z,16.13
2023-02-14T21:16:16.766Z,19.80
2023-02-14T21:18:48.114Z,17.23
2023-02-14T21:21:20.194Z,20.17
2023-02-14T21:23:51.669Z,15.43
2023-02-14T21:26:21.434Z,11.48
2023-02-14T21:28:48.598Z,14.02
2023-02-14T21:31:18.104Z,15.05
2023-02-14T21:33:45.500Z,17.10
2023-02-14T21:36:15.676Z,11.65
2023-02-14T21:38:43.326Z,13.75
2023-02-14T21:41:13.694Z,14.65
2023-02-14T21:43:45.545Z,13.60
2023-02-14T21:46:17.639Z,10.48
2023-02-14T21:49:04.848Z,13.55
2023-02-14T21:51:32.714Z,14.85
2023-02-14T21:54:02.550Z,12.05
2023-02-14T21:56:29.862Z,19.70
2023-02-14T21:58:57.211Z,15.02
2023-02-14T22:01:29.610Z,14.82
2023-02-14T22:03:57.046Z,17.77
2023-02-14T22:06:25.966Z,17.38
2023-02-14T22:08:57.795Z,13.82
2023-02-14T22:11:27.550Z,14.77
2023-02-14T22:13:55.511Z,19.38
2023-02-14T22:16:24.689Z,16.05
2023-02-14T22:18:52.514Z,13.40
2023-02-14T22:21:23.394Z,17.55
2023-02-14T22:23:51.034Z,17.85
2023-02-14T22:26:43.409Z,14.73
2023-02-14T22:29:12.526Z,15.48
2023-02-14T22:31:42.763Z,12.15
2023-02-14T22:34:13.013Z,13.40
2023-02-14T22:36:40.343Z,22.58
2023-02-14T22:39:07.561Z,14.85
2023-02-14T22:41:37.890Z,12.25
2023-02-14T22:44:06.076Z,14.60
2023-02-14T22:46:33.866Z,13.85
2023-02-14T22:49:00.976Z,21.35
2023-02-14T22:51:29.927Z,15.50
2023-02-14T22:54:09.214Z,16.05
2023-02-14T22:56:39.775Z,11.40
2023-02-14T22:59:13.132Z,16.20
2023-02-14T23:01:40.577Z,15.32
2023-02-14T23:04:07.814Z,15.93
2023-02-14T23:06:36.895Z,13.27
2023-02-14T23:09:06.848Z,11.57
2023-02-14T23:11:35.864Z,11.60
2023-02-14T23:14:22.272Z,12.32
2023-02-14T23:17:08.814Z,18.20
2023-02-14T23:19:55.829Z,10.98
2023-02-14T23:22:22.999Z,9.50
2023-02-14T23:24:52.090Z,14.88
2023-02-14T23:27:21.880Z,12.95
2023-02-14T23:29:49.525Z,11.55
2023-02-14T23:32:17.191Z,14.88
2023-02-14T23:34:45.293Z,10.50
2023-02-14T23:37:13.821Z,14.65
2023-02-14T23:39:41.778Z,10.45
2023-02-14T23:42:12.330Z,10.00
2023-02-14T23:44:40.080Z,8.13
2023-02-14T23:47:08.853Z,11.15
2023-02-14T23:49:37.625Z,9.10
2023-02-14T23:52:07.998Z,9.48
2023-02-14T23:54:35.738Z,9.18
2023-02-14T23:57:04.078Z,9.70
2023-02-14T23:59:31.268Z,9.00
